createdAt,value
2023-08-29T00:01:25.873Z,81831.65
2023-08-29T00:03:57.252Z,81826.70
2023-08-29T00:06:25.526Z,81825.61
2023-08-29T00:08:53.783Z,81825.08
2023-08-29T00:11:22.935Z,81825.47
2023-08-29T00:13:53.716Z,81822.84
2023-08-29T00:16:23.707Z,81825.70
2023-08-29T00:18:52.378Z,81820.89
2023-08-29T00:21:21.670Z,81825.27
2023-08-29T00:23:50.602Z,81826.50
2023-08-29T00:26:19.646Z,81819.92
2023-08-29T00:28:51.620Z,81822.64
2023-08-29T00:31:20.814Z,81825.47
2023-08-29T00:33:49.679Z,81822.27
2023-08-29T00:36:18.437Z,81830.05
2023-08-29T00:38:47.682Z,81836.49
2023-08-29T00:48:28.908Z,81819.40
2023-08-29T00:50:55.878Z,81821.36
2023-08-29T00:53:22.428Z,81817.48
2023-08-29T00:55:49.366Z,81823.94
2023-08-29T00:58:15.883Z,81811.05
2023-08-29T01:00:42.554Z,81805.34
2023-08-29T01:03:09.140Z,81809.71
2023-08-29T01:05:35.745Z,81805.27
2023-08-29T01:08:02.397Z,81811.05
2023-08-29T01:10:46.327Z,81807.23
2023-08-29T01:13:18.965Z,81807.73
2023-08-29T01:15:47.742Z,81806.23
2023-08-29T01:18:14.903Z,81812.32
2023-08-29T01:20:41.454Z,81811.96
2023-08-29T01:23:15.162Z,81818.20
2023-08-29T01:26:12.888Z,81814.08
2023-08-29T01:28:42.223Z,81820.48
2023-08-29T01:31:08.829Z,81824.19
2023-08-29T01:33:35.604Z,81819.52
2023-08-29T01:36:02.218Z,81821.61
2023-08-29T01:38:28.797Z,81825.55
2023-08-29T01:40:55.364Z,81824.98
2023-08-29T01:43:22.047Z,81825.00
2023-08-29T01:45:48.919Z,81819.47
2023-08-29T01:48:15.689Z,81836.71
2023-08-29T01:50:43.217Z,81835.65
2023-08-29T01:53:12.853Z,81834.56
2023-08-29T01:55:39.412Z,81835.73
2023-08-29T01:58:06.514Z,81837.92
2023-08-29T02:00:34.123Z,81839.84
2023-08-29T02:03:00.738Z,81841.83
2023-08-29T02:05:28.253Z,81844.30
2023-08-29T02:07:54.766Z,81844.92
2023-08-29T02:10:21.524Z,81848.49
2023-08-29T02:12:48.089Z,81844.37
2023-08-29T02:15:14.698Z,81841.55
2023-08-29T02:17:41.406Z,81840.59
2023-08-29T02:27:00.369Z,81846.02
2023-08-29T02:29:26.913Z,81846.06
2023-08-29T02:31:53.393Z,81844.73
2023-08-29T02:34:19.904Z,81836.58
2023-08-29T02:36:46.449Z,81840.46
2023-08-29T02:39:12.997Z,81841.33
2023-08-29T02:41:39.592Z,81841.39
2023-08-29T02:44:06.255Z,81840.23
2023-08-29T02:46:32.878Z,81838.50
2023-08-29T02:48:59.498Z,81836.50
2023-08-29T02:51:26.735Z,81832.85
2023-08-29T02:53:53.476Z,81834.16
2023-08-29T02:56:20.614Z,81830.55
2023-08-29T02:58:48.091Z,81840.76
2023-08-29T03:01:15.073Z,81837.44
2023-08-29T03:03:42.407Z,81840.25
2023-08-29T03:06:09.271Z,81841.13
2023-08-29T03:08:36.319Z,81842.36
2023-08-29T03:11:06.971Z,81847.01
2023-08-29T03:13:33.857Z,81848.09
2023-08-29T03:16:00.896Z,81846.91
2023-08-29T03:18:28.800Z,81854.16
2023-08-29T03:20:57.102Z,81852.10
2023-08-29T03:23:23.686Z,81847.00
2023-08-29T03:25:50.312Z,81859.55
2023-08-29T03:28:16.881Z,81856.19
2023-08-29T03:30:43.695Z,81854.29
2023-08-29T03:33:10.332Z,81847.50
2023-08-29T03:35:37.255Z,81854.40
2023-08-29T03:38:05.681Z,81855.54
2023-08-29T03:40:32.464Z,81854.15
2023-08-29T03:42:59.806Z,81843.01
2023-08-29T03:45:26.383Z,81852.53
2023-08-29T03:47:52.953Z,81851.02
2023-08-29T03:50:22.190Z,81843.73
2023-08-29T03:52:49.290Z,81851.59
2023-08-29T03:55:16.142Z,81849.33
2023-08-29T03:57:42.836Z,81852.59
2023-08-29T04:00:11.879Z,81859.65
2023-08-29T04:02:42.432Z,81856.59
2023-08-29T04:05:16.703Z,81855.10
2023-08-29T04:07:43.853Z,81851.35
2023-08-29T04:10:13.200Z,81860.86
2023-08-29T04:12:39.723Z,81859.52
2023-08-29T04:15:07.355Z,81858.45
2023-08-29T04:17:33.951Z,81855.29
2023-08-29T04:20:01.464Z,81844.27
2023-08-29T04:29:46.458Z,81847.14
2023-08-29T04:32:13.363Z,81851.13
2023-08-29T04:34:40.395Z,81854.58
2023-08-29T04:37:06.953Z,81842.90
2023-08-29T04:39:33.660Z,81852.42
2023-08-29T04:42:01.110Z,81859.35
2023-08-29T04:44:28.142Z,81859.02
2023-08-29T04:46:56.113Z,81852.52
2023-08-29T04:49:23.279Z,81851.61
2023-08-29T04:51:49.802Z,81852.60
2023-08-29T04:54:16.477Z,81856.44
2023-08-29T04:56:43.502Z,81860.27
2023-08-29T04:59:10.014Z,81863.96
2023-08-29T05:01:37.322Z,81866.46
2023-08-29T05:04:07.378Z,81866.34
2023-08-29T05:06:34.243Z,81867.95
2023-08-29T05:09:00.852Z,81873.34
2023-08-29T05:11:28.104Z,81873.96
2023-08-29T05:13:54.592Z,81871.23
2023-08-29T05:16:21.136Z,81879.69
2023-08-29T05:18:48.469Z,81877.91
2023-08-29T05:21:14.974Z,81875.30
2023-08-29T05:23:41.556Z,81875.70
2023-08-29T05:26:08.113Z,81877.18
2023-08-29T05:28:34.890Z,81878.64
2023-08-29T05:31:01.478Z,81880.91
2023-08-29T05:33:28.104Z,81886.98
2023-08-29T05:35:54.611Z,81888.59
2023-08-29T05:38:26.677Z,81891.60
2023-08-29T05:40:53.844Z,81892.11
2023-08-29T05:43:20.889Z,81894.42
2023-08-29T05:45:47.402Z,81896.44
2023-08-29T05:48:14.460Z,81896.86
2023-08-29T05:50:41.731Z,81900.91
2023-08-29T05:53:08.463Z,81896.50
2023-08-29T05:55:35.468Z,81893.71
2023-08-29T05:58:01.983Z,81893.98
2023-08-29T06:00:28.598Z,81894.09
2023-08-29T06:02:55.180Z,81897.60
2023-08-29T06:05:22.072Z,81898.42
2023-08-29T06:07:48.578Z,81893.22
2023-08-29T06:10:15.347Z,81894.25
2023-08-29T06:12:42.312Z,81895.10
2023-08-29T06:15:09.653Z,81890.25
2023-08-29T06:17:36.378Z,81896.29
2023-08-29T06:20:04.778Z,81883.88
2023-08-29T06:22:31.288Z,81892.48
2023-08-29T06:24:57.815Z,81896.08
2023-08-29T06:27:24.378Z,81896.90
2023-08-29T06:29:50.965Z,81898.77
2023-08-29T06:32:17.518Z,81902.02
2023-08-29T06:34:44.075Z,81909.08
2023-08-29T06:37:10.592Z,81914.27
2023-08-29T06:39:37.262Z,81914.11
2023-08-29T06:42:03.879Z,81923.30
2023-08-29T06:44:31.456Z,81912.58
2023-08-29T06:46:58.194Z,81925.11
2023-08-29T06:49:24.736Z,81923.97
2023-08-29T06:51:51.290Z,81923.49
2023-08-29T06:54:17.808Z,81929.16
2023-08-29T06:56:44.388Z,81933.41
2023-08-29T06:59:12.318Z,81938.71
2023-08-29T07:01:38.867Z,81937.74
2023-08-29T07:04:06.111Z,81933.42
2023-08-29T07:06:32.748Z,81934.05
2023-08-29T07:08:59.381Z,81932.94
2023-08-29T07:11:25.895Z,81927.71
2023-08-29T07:13:52.440Z,81931.52
2023-08-29T07:16:19.067Z,81932.09
2023-08-29T07:18:46.060Z,81936.58
2023-08-29T07:21:12.670Z,81934.48
2023-08-29T07:23:39.208Z,81939.39
2023-08-29T07:26:05.773Z,81937.45
2023-08-29T07:28:32.406Z,81939.33
2023-08-29T07:30:59.923Z,81939.73
2023-08-29T07:33:26.592Z,81941.23
2023-08-29T07:35:53.550Z,81950.95
2023-08-29T07:38:20.308Z,81949.52
2023-08-29T07:40:46.988Z,81947.58
2023-08-29T07:43:14.463Z,81953.94
2023-08-29T07:45:40.960Z,81959.73
2023-08-29T07:48:08.071Z,81956.66
2023-08-29T07:50:34.989Z,81970.02
2023-08-29T07:53:02.164Z,81968.70
2023-08-29T07:55:28.655Z,81973.85
2023-08-29T07:57:55.346Z,81973.56
2023-08-29T08:00:22.617Z,81976.95
2023-08-29T08:02:49.318Z,81978.67
2023-08-29T08:05:16.738Z,81978.44
2023-08-29T08:07:44.547Z,81979.97
2023-08-29T08:10:12.197Z,81973.06
2023-08-29T08:12:40.089Z,81984.81
2023-08-29T08:15:09.117Z,81976.58
2023-08-29T08:17:36.662Z,81977.48
2023-08-29T08:20:08.105Z,81993.61
2023-08-29T08:22:35.729Z,81991.19
2023-08-29T08:25:02.808Z,81991.09
2023-08-29T08:27:31.050Z,81986.70
2023-08-29T08:29:58.409Z,81990.77
2023-08-29T08:32:25.183Z,81992.13
2023-08-29T08:34:51.734Z,81994.23
2023-08-29T08:37:18.295Z,81985.88
2023-08-29T08:39:44.782Z,81988.86
2023-08-29T08:42:12.430Z,81984.71
2023-08-29T08:44:39.198Z,81996.38
2023-08-29T08:47:06.548Z,81999.83
2023-08-29T08:49:33.210Z,82005.45
2023-08-29T08:51:59.745Z,82002.15
2023-08-29T08:54:26.301Z,82002.08
2023-08-29T08:56:52.857Z,82008.07
2023-08-29T08:59:19.534Z,82002.67
2023-08-29T09:01:46.247Z,82007.14
2023-08-29T09:04:12.922Z,81999.52
2023-08-29T09:06:39.943Z,82004.63
2023-08-29T09:09:17.956Z,82003.48
2023-08-29T09:11:44.644Z,82002.22
2023-08-29T09:14:13.875Z,81999.41
2023-08-29T09:16:40.646Z,82005.02
2023-08-29T09:19:07.804Z,82008.89
2023-08-29T09:21:36.552Z,82008.90
2023-08-29T09:24:05.743Z,82008.86
2023-08-29T09:26:35.474Z,82011.65
2023-08-29T09:29:16.329Z,82012.82
2023-08-29T09:31:42.908Z,82008.52
2023-08-29T09:34:09.643Z,82012.61
2023-08-29T09:36:36.221Z,82013.60
2023-08-29T09:39:03.832Z,82017.86
2023-08-29T09:41:30.346Z,82019.00
2023-08-29T09:43:57.022Z,82011.66
2023-08-29T09:46:26.707Z,82016.39
2023-08-29T09:48:57.090Z,82014.71
2023-08-29T09:51:23.926Z,82018.34
2023-08-29T09:53:50.838Z,82013.13
2023-08-29T09:56:17.363Z,82014.58
2023-08-29T09:58:44.129Z,82008.62
2023-08-29T10:01:11.840Z,82020.43
2023-08-29T10:03:38.556Z,82019.26
2023-08-29T10:06:06.716Z,82022.88
2023-08-29T10:08:43.013Z,82028.42
2023-08-29T10:11:09.560Z,82033.96
2023-08-29T10:13:36.221Z,82032.98
2023-08-29T10:16:03.018Z,82033.17
2023-08-29T10:18:29.506Z,82037.83
2023-08-29T10:20:56.082Z,82032.79
2023-08-29T10:23:22.578Z,82031.52
2023-08-29T10:25:49.125Z,82029.02
2023-08-29T10:28:15.695Z,82027.74
2023-08-29T10:30:47.272Z,82031.81
2023-08-29T10:33:14.462Z,82037.89
2023-08-29T10:35:41.024Z,82025.86
2023-08-29T10:38:11.362Z,82028.13
2023-08-29T10:40:39.966Z,82028.75
2023-08-29T10:43:17.547Z,82028.36
2023-08-29T10:46:13.480Z,82024.21
2023-08-29T10:48:40.283Z,82022.20
2023-08-29T10:51:26.548Z,82021.55
2023-08-29T10:54:06.545Z,82021.10
2023-08-29T10:56:40.795Z,82024.84
2023-08-29T10:59:07.480Z,82021.21
2023-08-29T11:01:34.968Z,82018.09
2023-08-29T11:04:04.751Z,82016.72
2023-08-29T11:06:54.882Z,82017.55
2023-08-29T11:09:22.885Z,82017.50
2023-08-29T11:12:14.165Z,82018.65
2023-08-29T11:14:53.710Z,82018.59
2023-08-29T11:17:24.630Z,82018.52
2023-08-29T11:19:56.253Z,82018.27
2023-08-29T11:22:32.701Z,82013.02
2023-08-29T11:24:59.499Z,82016.14
2023-08-29T11:27:27.164Z,82013.34
2023-08-29T11:30:05.829Z,82003.55
2023-08-29T11:32:41.735Z,82009.08
2023-08-29T11:35:08.352Z,82010.89
2023-08-29T11:37:35.664Z,82015.13
2023-08-29T11:40:10.757Z,82012.94
2023-08-29T11:42:42.713Z,82019.50
2023-08-29T11:45:45.718Z,82018.80
2023-08-29T11:48:13.821Z,82019.58
2023-08-29T11:50:40.610Z,82020.23
2023-08-29T11:53:07.780Z,82020.55
2023-08-29T11:55:34.290Z,82023.85
2023-08-29T11:58:01.348Z,82025.73
2023-08-29T12:00:27.874Z,82026.08
2023-08-29T12:02:54.451Z,82028.02
2023-08-29T12:05:21.668Z,82028.02
2023-08-29T12:07:52.293Z,82025.34
2023-08-29T12:10:19.262Z,82032.59
2023-08-29T12:12:45.983Z,82028.74
2023-08-29T12:15:12.729Z,82036.12
2023-08-29T12:17:41.586Z,82030.49
2023-08-29T12:20:17.602Z,82037.43
2023-08-29T12:22:53.429Z,82036.11
2023-08-29T12:25:20.091Z,82037.91
2023-08-29T12:27:47.911Z,82033.13
2023-08-29T12:30:15.491Z,82034.88
2023-08-29T12:32:44.097Z,82032.25
2023-08-29T12:35:11.579Z,82036.90
2023-08-29T12:37:38.103Z,82035.79
2023-08-29T12:40:06.423Z,82034.32
2023-08-29T12:42:33.079Z,82035.33
2023-08-29T12:45:00.809Z,82033.18
2023-08-29T12:47:27.616Z,82036.52
2023-08-29T12:49:54.165Z,82036.48
2023-08-29T12:52:20.865Z,82030.85
2023-08-29T12:54:47.637Z,82038.11
2023-08-29T12:57:14.386Z,82040.93
2023-08-29T12:59:40.952Z,82045.64
2023-08-29T13:02:07.842Z,82047.06
2023-08-29T13:04:34.451Z,82045.29
2023-08-29T13:07:00.995Z,82044.81
2023-08-29T13:09:37.599Z,82045.96
2023-08-29T13:12:08.054Z,82043.73
2023-08-29T13:14:38.619Z,82043.01
2023-08-29T13:17:06.776Z,82048.88
2023-08-29T13:19:34.318Z,82047.88
2023-08-29T13:22:04.363Z,82047.71
2023-08-29T13:24:31.057Z,82045.42
2023-08-29T13:26:57.622Z,82037.42
2023-08-29T13:29:24.415Z,82042.57
2023-08-29T13:31:51.754Z,82036.96
2023-08-29T13:34:18.849Z,82040.16
2023-08-29T13:36:45.681Z,82040.94
2023-08-29T13:39:12.404Z,82049.85
2023-08-29T13:41:39.149Z,82046.47
2023-08-29T13:44:05.668Z,82053.74
2023-08-29T13:46:32.435Z,82048.08
2023-08-29T13:48:59.006Z,82045.55
2023-08-29T13:51:25.601Z,82049.30
2023-08-29T13:53:52.122Z,82048.25
2023-08-29T13:56:18.704Z,82048.27
2023-08-29T13:58:45.875Z,82049.80
2023-08-29T14:01:13.647Z,82045.27
2023-08-29T14:03:40.331Z,82044.52
2023-08-29T14:06:07.071Z,82042.38
2023-08-29T14:08:33.642Z,82048.59
2023-08-29T14:11:01.150Z,82046.96
2023-08-29T14:13:27.744Z,82046.98
2023-08-29T14:16:01.546Z,82048.91
2023-08-29T14:18:28.298Z,82047.64
2023-08-29T14:20:55.174Z,82051.55
2023-08-29T14:23:21.736Z,82054.01
2023-08-29T14:25:48.490Z,82057.88
2023-08-29T14:28:15.023Z,82058.31
2023-08-29T14:30:42.925Z,82056.50
2023-08-29T14:33:11.598Z,82053.30
2023-08-29T14:35:39.343Z,82055.09
2023-08-29T14:38:06.265Z,82062.45
2023-08-29T14:40:33.728Z,82056.27
2023-08-29T14:43:00.309Z,82059.88
2023-08-29T14:45:27.009Z,82058.91
2023-08-29T14:47:56.937Z,82056.94
2023-08-29T14:50:25.818Z,82056.36
2023-08-29T14:52:52.767Z,82051.04
2023-08-29T14:55:22.735Z,82061.52
2023-08-29T14:57:49.747Z,82059.37
2023-08-29T15:00:17.059Z,82066.70
2023-08-29T15:02:45.155Z,82066.15
2023-08-29T15:05:13.341Z,82066.67
2023-08-29T15:07:40.989Z,82070.14
2023-08-29T15:10:09.482Z,82064.99
2023-08-29T15:12:36.147Z,82075.20
2023-08-29T15:15:02.931Z,82078.42
2023-08-29T15:17:31.635Z,82079.61
2023-08-29T15:19:58.335Z,82082.95
2023-08-29T15:22:25.039Z,82085.65
2023-08-29T15:24:51.828Z,82083.71
2023-08-29T15:27:18.484Z,82086.45
2023-08-29T15:29:45.559Z,82079.54
2023-08-29T15:32:12.128Z,82086.05
2023-08-29T15:34:38.864Z,82089.86
2023-08-29T15:37:06.247Z,82094.25
2023-08-29T15:39:33.939Z,82095.31
2023-08-29T15:42:01.096Z,82093.48
2023-08-29T15:44:33.301Z,82094.96
2023-08-29T15:47:00.939Z,82100.61
2023-08-29T15:49:27.928Z,82097.93
2023-08-29T15:51:55.167Z,82101.39
2023-08-29T15:54:22.149Z,82100.73
2023-08-29T15:56:48.793Z,82104.17
2023-08-29T15:59:15.341Z,82107.04
2023-08-29T16:01:42.739Z,82108.25
2023-08-29T16:04:09.603Z,82105.73
2023-08-29T16:06:36.202Z,82106.66
2023-08-29T16:09:03.557Z,82109.89
2023-08-29T16:11:30.117Z,82106.86
2023-08-29T16:13:56.605Z,82110.01
2023-08-29T16:16:23.144Z,82115.90
2023-08-29T16:18:49.768Z,82113.15
2023-08-29T16:21:17.824Z,82112.15
2023-08-29T16:23:46.656Z,82115.90
2023-08-29T16:26:17.598Z,82115.84
2023-08-29T16:28:44.599Z,82119.09
2023-08-29T16:31:11.217Z,82121.58
2023-08-29T16:33:37.932Z,82119.27
2023-08-29T16:36:05.246Z,82119.91
2023-08-29T16:38:31.926Z,82118.70
2023-08-29T16:40:59.267Z,82121.70
2023-08-29T16:43:27.383Z,82117.69
2023-08-29T16:45:54.086Z,82114.77
2023-08-29T16:48:20.618Z,82115.79
2023-08-29T16:50:48.879Z,82114.27
2023-08-29T16:53:15.720Z,82115.27
2023-08-29T16:55:42.300Z,82112.67
2023-08-29T16:58:09.263Z,82114.16
2023-08-29T17:00:36.298Z,82113.35
2023-08-29T17:03:11.130Z,82109.47
2023-08-29T17:05:39.208Z,82111.46
2023-08-29T17:08:07.309Z,82111.10
2023-08-29T17:10:34.518Z,82110.73
2023-08-29T17:13:01.067Z,82109.10
2023-08-29T17:15:27.682Z,82111.11
2023-08-29T17:17:54.255Z,82109.23
2023-08-29T17:20:21.661Z,82113.88
2023-08-29T17:22:49.359Z,82120.46
2023-08-29T17:25:15.969Z,82122.80
2023-08-29T17:27:42.529Z,82126.23
2023-08-29T17:30:09.828Z,82124.52
2023-08-29T17:32:36.395Z,82125.86
2023-08-29T17:35:03.327Z,82126.06
2023-08-29T17:37:30.085Z,82128.92
2023-08-29T17:39:56.925Z,82127.30
2023-08-29T17:42:23.496Z,82130.71
2023-08-29T17:44:53.394Z,82133.48
2023-08-29T17:47:19.988Z,82130.50
2023-08-29T17:49:46.623Z,82133.07
2023-08-29T17:52:13.181Z,82130.40
2023-08-29T17:54:39.910Z,82133.64
2023-08-29T17:57:06.474Z,82128.86
2023-08-29T17:59:33.333Z,82131.62
2023-08-29T18:01:59.891Z,82130.67
2023-08-29T18:04:26.484Z,82130.15
2023-08-29T18:06:53.061Z,82131.54
2023-08-29T18:09:19.600Z,82124.87
2023-08-29T18:11:46.451Z,82137.23
2023-08-29T18:14:13.146Z,82137.84
2023-08-29T18:16:39.883Z,82137.60
2023-08-29T18:19:06.493Z,82140.95
2023-08-29T18:21:33.586Z,82139.18
2023-08-29T18:24:00.409Z,82138.20
2023-08-29T18:26:26.898Z,82142.42
2023-08-29T18:28:53.540Z,82142.55
2023-08-29T18:31:20.544Z,82143.02
2023-08-29T18:33:47.090Z,82146.07
2023-08-29T18:36:13.703Z,82138.61
2023-08-29T18:38:40.265Z,82148.85
2023-08-29T18:41:06.800Z,82149.25
2023-08-29T18:43:33.446Z,82149.52
2023-08-29T18:46:00.048Z,82149.85
2023-08-29T18:48:26.705Z,82152.04
2023-08-29T18:50:53.204Z,82157.32
2023-08-29T18:53:21.005Z,82159.52
2023-08-29T18:55:47.710Z,82158.34
2023-08-29T18:58:14.772Z,82162.31
2023-08-29T19:00:45.297Z,82159.95
2023-08-29T19:03:12.157Z,82158.08
2023-08-29T19:05:40.827Z,82160.03
2023-08-29T19:08:07.952Z,82156.55
2023-08-29T19:10:36.900Z,82154.73
2023-08-29T19:13:04.122Z,82154.96
2023-08-29T19:15:31.939Z,82159.02
2023-08-29T19:17:59.078Z,82160.33
2023-08-29T19:20:25.683Z,82160.62
2023-08-29T19:22:52.211Z,82157.27
2023-08-29T19:25:19.392Z,82159.50
2023-08-29T19:27:45.966Z,82160.92
2023-08-29T19:30:13.046Z,82160.77
2023-08-29T19:32:39.857Z,82160.89
2023-08-29T19:35:07.445Z,82156.33
2023-08-29T19:37:33.994Z,82151.18
2023-08-29T19:40:00.524Z,82154.55
2023-08-29T19:42:27.374Z,82156.44
2023-08-29T19:44:53.951Z,82144.89
2023-08-29T19:47:26.169Z,82154.36
2023-08-29T19:49:52.691Z,82151.88
2023-08-29T19:52:20.036Z,82152.57
2023-08-29T19:54:46.649Z,82147.92
2023-08-29T19:57:14.326Z,82151.39
2023-08-29T19:59:41.098Z,82151.45
2023-08-29T20:02:07.880Z,82149.72
2023-08-29T20:04:34.539Z,82147.41
2023-08-29T20:07:01.634Z,82151.27
2023-08-29T20:09:30.325Z,82148.50
2023-08-29T20:11:59.193Z,82153.60
2023-08-29T20:14:25.766Z,82148.29
2023-08-29T20:16:53.883Z,82147.16
2023-08-29T20:19:23.998Z,82147.23
2023-08-29T20:21:51.221Z,82146.75
2023-08-29T20:24:20.525Z,82142.31
2023-08-29T20:26:48.252Z,82144.33
2023-08-29T20:29:14.806Z,82140.91
2023-08-29T20:31:41.348Z,82151.16
2023-08-29T20:34:07.878Z,82151.73
2023-08-29T20:36:34.819Z,82146.02
2023-08-29T20:39:01.578Z,82158.86
2023-08-29T20:41:28.159Z,82157.07
2023-08-29T20:43:54.656Z,82157.42
2023-08-29T20:46:21.800Z,82161.95
2023-08-29T20:48:52.293Z,82162.35
2023-08-29T20:51:19.449Z,82163.73
2023-08-29T20:53:46.224Z,82157.02
2023-08-29T20:56:12.864Z,82162.85
2023-08-29T20:58:39.491Z,82165.77
2023-08-29T21:01:06.009Z,82166.42
2023-08-29T21:03:33.007Z,82163.12
2023-08-29T21:05:59.803Z,82168.67
2023-08-29T21:08:27.067Z,82169.65
2023-08-29T21:10:53.740Z,82164.52
2023-08-29T21:13:21.457Z,82164.73
2023-08-29T21:15:48.258Z,82161.86
2023-08-29T21:18:18.094Z,82166.19
2023-08-29T21:20:54.875Z,82159.83
2023-08-29T21:23:21.835Z,82167.23
2023-08-29T21:25:48.640Z,82166.84
2023-08-29T21:28:16.909Z,82168.31
2023-08-29T21:30:44.818Z,82170.06
2023-08-29T21:33:11.711Z,82162.98
2023-08-29T21:35:42.537Z,82167.01
2023-08-29T21:38:11.278Z,82167.97
2023-08-29T21:40:41.500Z,82158.15
2023-08-29T21:43:08.999Z,82160.89
2023-08-29T21:45:36.332Z,82165.39
2023-08-29T21:48:08.733Z,82161.52
2023-08-29T21:50:39.380Z,82157.90
2023-08-29T21:53:07.400Z,82154.05
2023-08-29T21:55:34.878Z,82154.09
2023-08-29T21:58:01.806Z,82154.51
2023-08-29T22:00:28.352Z,82154.44
2023-08-29T22:02:54.989Z,82155.01
2023-08-29T22:05:21.775Z,82158.93
2023-08-29T22:07:48.305Z,82159.61
2023-08-29T22:10:14.869Z,82160.80
2023-08-29T22:12:42.184Z,82159.48
2023-08-29T22:15:09.982Z,82155.72
2023-08-29T22:17:38.205Z,82160.70
2023-08-29T22:20:05.854Z,82159.80
2023-08-29T22:22:32.412Z,82162.41
2023-08-29T22:24:58.965Z,82164.61
2023-08-29T22:27:25.483Z,82163.07
2023-08-29T22:29:52.139Z,82162.33
2023-08-29T22:32:18.742Z,82163.79
2023-08-29T22:34:46.205Z,82162.29
2023-08-29T22:37:15.654Z,82161.19
2023-08-29T22:39:42.258Z,82162.36
2023-08-29T22:42:10.037Z,82163.02
2023-08-29T22:44:41.928Z,82152.52
2023-08-29T22:47:11.105Z,82159.48
2023-08-29T22:49:37.613Z,82154.08
2023-08-29T22:52:04.900Z,82154.23
2023-08-29T22:54:31.935Z,82152.60
2023-08-29T22:56:59.334Z,82154.13
2023-08-29T22:59:26.174Z,82146.69
2023-08-29T23:01:52.832Z,82153.86
2023-08-29T23:04:19.324Z,82154.08
2023-08-29T23:06:46.119Z,82156.73
2023-08-29T23:09:12.858Z,82153.03
2023-08-29T23:11:40.459Z,82153.34
2023-08-29T23:14:06.997Z,82148.98
2023-08-29T23:16:33.653Z,82134.80
2023-08-29T23:19:00.201Z,82145.19
2023-08-29T23:21:26.759Z,82141.80
2023-08-29T23:23:55.284Z,82145.75
2023-08-29T23:26:21.795Z,82146.33
2023-08-29T23:28:48.314Z,82142.12
2023-08-29T23:31:15.818Z,82138.06
2023-08-29T23:33:52.316Z,82138.36
2023-08-29T23:36:19.204Z,82126.80
2023-08-29T23:38:45.831Z,82134.66
2023-08-29T23:41:12.358Z,82132.80
2023-08-29T23:43:39.550Z,82132.84
2023-08-29T23:46:06.054Z,82136.69
2023-08-29T23:48:32.648Z,82136.21
2023-08-29T23:50:59.193Z,82129.77
2023-08-29T23:53:25.846Z,82133.45
2023-08-29T23:55:52.509Z,82134.63
2023-08-29T23:58:19.177Z,82122.69
